createdAt,value
2018-01-22T00:02:27.797Z,-2.30
2018-01-22T00:05:37.851Z,-2.30
2018-01-22T00:08:48.610Z,-2.30
2018-01-22T00:11:58.730Z,-2.30
2018-01-22T00:15:08.495Z,-2.30
2018-01-22T00:18:18.439Z,-2.40
2018-01-22T00:21:28.713Z,-2.40
2018-01-22T00:24:38.909Z,-2.40
2018-01-22T00:27:48.930Z,-2.40
2018-01-22T00:30:58.957Z,-2.50
2018-01-22T00:34:10.134Z,-2.50
2018-01-22T00:37:20.022Z,-2.50
2018-01-22T00:40:29.922Z,-2.50
2018-01-22T00:43:40.689Z,-2.50
2018-01-22T00:46:50.615Z,-2.50
2018-01-22T00:50:01.246Z,-2.50
2018-01-22T00:53:11.409Z,-2.40
2018-01-22T00:56:21.230Z,-2.40
2018-01-22T00:59:31.102Z,-2.40
2018-01-22T01:02:41.014Z,-2.40
2018-01-22T01:05:50.941Z,-2.30
2018-01-22T01:09:00.799Z,-2.30
2018-01-22T01:12:11.517Z,-2.30
2018-01-22T01:15:22.453Z,-2.30
2018-01-22T01:18:32.856Z,-2.30
2018-01-22T01:21:43.605Z,-2.20
2018-01-22T01:24:53.770Z,-2.20
2018-01-22T01:28:03.748Z,-2.20
2018-01-22T01:31:13.879Z,-2.20
2018-01-22T01:34:24.047Z,-2.20
2018-01-22T01:37:34.297Z,-2.20
2018-01-22T01:40:44.154Z,-2.10
2018-01-22T01:43:54.405Z,-2.10
2018-01-22T01:47:04.963Z,-2.10
2018-01-22T01:50:14.898Z,-2.10
2018-01-22T01:53:24.910Z,-2.10
2018-01-22T01:56:34.925Z,-2.00
2018-01-22T01:59:45.196Z,-2.00
2018-01-22T02:02:55.200Z,-2.00
2018-01-22T02:06:05.446Z,-2.00
2018-01-22T02:09:15.431Z,-2.00
2018-01-22T02:12:25.489Z,-2.10
2018-01-22T02:15:35.190Z,-2.10
2018-01-22T02:18:45.931Z,-2.10
2018-01-22T02:21:55.833Z,-2.10
2018-01-22T02:25:05.916Z,-2.10
2018-01-22T02:28:15.914Z,-2.10
2018-01-22T02:31:25.754Z,-2.00
2018-01-22T02:34:36.319Z,-2.00
2018-01-22T02:37:46.488Z,-2.10
2018-01-22T02:40:56.575Z,-2.00
2018-01-22T02:44:06.604Z,-2.00
2018-01-22T02:47:17.409Z,-1.90
2018-01-22T02:50:28.823Z,-1.90
2018-01-22T02:53:39.144Z,-1.90
2018-01-22T02:56:49.328Z,-1.80
2018-01-22T02:59:59.043Z,-1.80
2018-01-22T03:03:09.252Z,-1.80
2018-01-22T03:06:25.337Z,-1.90
2018-01-22T03:13:10.982Z,-1.80
2018-01-22T03:16:21.010Z,-1.80
2018-01-22T03:19:30.957Z,-1.80
2018-01-22T03:22:40.816Z,-1.80
2018-01-22T03:25:51.509Z,-1.70
2018-01-22T03:29:01.716Z,-1.80
2018-01-22T03:32:11.576Z,-1.70
2018-01-22T03:35:21.598Z,-1.70
2018-01-22T03:38:32.235Z,-1.70
2018-01-22T03:41:42.418Z,-1.70
2018-01-22T03:44:52.274Z,-1.70
2018-01-22T03:48:02.064Z,-1.70
2018-01-22T03:51:11.986Z,-1.70
2018-01-22T03:54:21.971Z,-1.60
2018-01-22T03:57:32.198Z,-1.60
2018-01-22T04:00:42.321Z,-1.60
2018-01-22T04:03:52.441Z,-1.60
2018-01-22T04:07:03.233Z,-1.60
2018-01-22T04:10:13.193Z,-1.70
2018-01-22T04:13:23.222Z,-1.60
2018-01-22T04:16:33.407Z,-1.60
2018-01-22T04:19:44.202Z,-1.60
2018-01-22T04:22:54.288Z,-1.60
2018-01-22T04:26:04.477Z,-1.60
2018-01-22T04:29:15.016Z,-1.60
2018-01-22T04:32:25.790Z,-1.60
2018-01-22T04:35:35.754Z,-1.60
2018-01-22T04:38:45.811Z,-1.60
2018-01-22T04:41:55.824Z,-1.60
2018-01-22T04:45:05.594Z,-1.60
2018-01-22T04:48:15.642Z,-1.50
2018-01-22T04:51:25.433Z,-1.50
2018-01-22T04:54:35.487Z,-1.50
2018-01-22T04:57:45.314Z,-1.50
2018-01-22T05:00:55.504Z,-1.50
2018-01-22T05:04:05.333Z,-1.50
2018-01-22T05:07:15.415Z,-1.50
2018-01-22T05:10:25.511Z,-1.50
2018-01-22T05:13:35.674Z,-1.40
2018-01-22T05:16:45.787Z,-1.40
2018-01-22T05:19:55.914Z,-1.40
2018-01-22T05:23:05.909Z,-1.40
2018-01-22T05:26:16.825Z,-1.40
2018-01-22T05:29:27.146Z,-1.40
2018-01-22T05:32:37.341Z,-1.40
2018-01-22T05:35:47.394Z,-1.40
2018-01-22T05:38:57.752Z,-1.40
2018-01-22T05:42:07.673Z,-1.40
2018-01-22T05:45:17.706Z,-1.40
2018-01-22T05:48:27.718Z,-1.40
2018-01-22T05:51:38.335Z,-1.30
2018-01-22T05:54:48.391Z,-1.30
2018-01-22T05:57:58.054Z,-1.30
2018-01-22T06:01:08.127Z,-1.30
2018-01-22T06:04:20.329Z,-1.30
2018-01-22T06:07:31.215Z,-1.30
2018-01-22T06:10:41.062Z,-1.30
2018-01-22T06:13:50.953Z,-1.30
2018-01-22T06:17:00.893Z,-1.30
2018-01-22T06:20:10.610Z,-1.30
2018-01-22T06:23:21.049Z,-1.30
2018-01-22T06:26:32.072Z,-1.20
2018-01-22T06:29:43.072Z,-1.20
2018-01-22T06:32:53.686Z,-1.30
2018-01-22T06:36:03.675Z,-1.20
2018-01-22T06:39:14.482Z,-1.20
2018-01-22T06:42:24.617Z,-1.30
2018-01-22T06:45:35.514Z,-1.20
2018-01-22T06:48:46.538Z,-1.20
2018-01-22T06:51:57.141Z,-1.20
2018-01-22T06:55:07.238Z,-1.10
2018-01-22T06:58:17.076Z,-1.10
2018-01-22T07:01:27.136Z,-1.10
2018-01-22T07:04:37.779Z,-1.10
2018-01-22T07:07:47.606Z,-1.10
2018-01-22T07:10:57.450Z,-1.10
2018-01-22T07:14:07.358Z,-1.10
2018-01-22T07:17:17.223Z,-1.10
2018-01-22T07:20:26.944Z,-1.10
2018-01-22T07:23:36.832Z,-1.10
2018-01-22T07:26:47.666Z,-1.10
2018-01-22T07:29:58.969Z,-1.10
2018-01-22T07:33:09.374Z,-1.10
2018-01-22T07:36:19.698Z,-1.10
2018-01-22T07:39:30.363Z,-1.00
2018-01-22T07:42:40.687Z,-1.00
2018-01-22T07:45:51.242Z,-1.00
2018-01-22T07:49:01.094Z,-1.00
2018-01-22T07:52:11.631Z,-1.00
2018-01-22T07:55:22.804Z,-1.00
2018-01-22T07:58:32.582Z,-1.00
2018-01-22T08:01:42.675Z,-1.00
2018-01-22T08:04:52.626Z,-1.00
2018-01-22T08:08:03.487Z,-0.90
2018-01-22T08:11:13.494Z,-0.90
2018-01-22T08:14:24.177Z,-0.90
2018-01-22T08:17:34.467Z,-0.90
2018-01-22T08:20:44.270Z,-0.80
2018-01-22T08:23:54.203Z,-0.80
2018-01-22T08:27:04.237Z,-0.70
2018-01-22T08:30:14.403Z,-0.70
2018-01-22T08:33:24.297Z,-0.70
2018-01-22T08:36:34.986Z,-0.70
2018-01-22T08:39:45.133Z,-0.70
2018-01-22T08:42:55.174Z,-0.60
2018-01-22T08:46:05.397Z,-0.60
2018-01-22T08:49:16.224Z,-0.60
2018-01-22T08:52:26.508Z,-0.60
2018-01-22T08:55:36.381Z,-0.50
2018-01-22T08:58:47.132Z,-0.50
2018-01-22T09:01:56.900Z,-0.50
2018-01-22T09:05:07.290Z,-0.50
2018-01-22T09:08:17.914Z,-0.40
2018-01-22T09:11:27.898Z,-0.40
2018-01-22T09:14:39.342Z,-0.30
2018-01-22T09:17:49.645Z,-0.30
2018-01-22T09:20:59.584Z,-0.20
2018-01-22T09:24:09.374Z,-0.20
2018-01-22T09:27:19.390Z,-0.20
2018-01-22T09:30:29.353Z,-0.10
2018-01-22T09:33:39.286Z,-0.10
2018-01-22T09:36:49.285Z,-0.10
2018-01-22T09:39:59.151Z,-0.10
2018-01-22T09:43:09.079Z,0.00
2018-01-22T09:46:19.045Z,0.00
2018-01-22T09:49:30.242Z,0.00
2018-01-22T09:52:40.294Z,0.00
2018-01-22T09:55:50.343Z,0.10
2018-01-22T09:59:00.730Z,0.10
2018-01-22T10:02:11.107Z,0.10
2018-01-22T10:05:22.219Z,0.20
2018-01-22T10:08:32.727Z,0.20
2018-01-22T10:11:42.509Z,0.20
2018-01-22T10:14:53.516Z,0.10
2018-01-22T10:18:03.418Z,0.10
2018-01-22T10:21:13.942Z,0.10
2018-01-22T10:24:23.640Z,0.10
2018-01-22T10:27:34.035Z,0.20
2018-01-22T10:30:43.957Z,0.20
2018-01-22T10:33:54.583Z,0.30
2018-01-22T10:37:04.683Z,0.30
2018-01-22T10:40:14.497Z,0.40
2018-01-22T10:43:24.378Z,0.40
2018-01-22T10:46:35.363Z,0.60
2018-01-22T10:49:46.021Z,0.60
2018-01-22T10:52:55.954Z,0.70
2018-01-22T10:56:05.836Z,0.70
2018-01-22T10:59:16.611Z,0.70
2018-01-22T11:02:26.554Z,0.80
2018-01-22T11:05:36.445Z,0.80
2018-01-22T11:08:46.597Z,0.90
2018-01-22T11:11:56.977Z,1.00
2018-01-22T11:15:07.124Z,1.10
2018-01-22T11:18:16.818Z,1.10
2018-01-22T11:21:27.274Z,1.20
2018-01-22T11:24:37.618Z,1.20
2018-01-22T11:27:47.374Z,1.30
2018-01-22T11:30:57.121Z,1.40
2018-01-22T11:34:07.136Z,1.40
2018-01-22T11:37:17.005Z,1.50
2018-01-22T11:40:27.306Z,1.40
2018-01-22T11:43:37.934Z,1.50
2018-01-22T11:46:47.761Z,1.50
2018-01-22T11:49:57.755Z,1.60
2018-01-22T11:53:08.245Z,1.60
2018-01-22T11:56:18.391Z,1.60
2018-01-22T11:59:28.288Z,1.50
2018-01-22T12:02:38.355Z,1.50
2018-01-22T12:05:49.136Z,1.50
2018-01-22T12:09:00.047Z,1.50
2018-01-22T12:12:10.795Z,1.50
2018-01-22T12:15:20.818Z,1.40
2018-01-22T12:18:31.492Z,1.50
2018-01-22T12:21:41.999Z,1.40
2018-01-22T12:24:52.294Z,1.50
2018-01-22T12:28:03.247Z,1.50
2018-01-22T12:31:13.961Z,1.50
2018-01-22T12:34:24.164Z,1.50
2018-01-22T12:37:34.661Z,1.50
2018-01-22T12:40:44.677Z,1.50
2018-01-22T12:43:54.471Z,1.50
2018-01-22T12:47:04.654Z,1.50
2018-01-22T12:50:14.673Z,1.50
2018-01-22T12:53:24.513Z,1.40
2018-01-22T12:56:34.308Z,1.40
2018-01-22T12:59:44.295Z,1.50
2018-01-22T13:02:54.022Z,1.50
2018-01-22T13:06:03.855Z,1.50
2018-01-22T13:09:13.682Z,1.50
2018-01-22T13:12:23.493Z,1.50
2018-01-22T13:15:34.064Z,1.60
2018-01-22T13:18:44.460Z,1.60
2018-01-22T13:21:54.363Z,1.60
2018-01-22T13:25:04.055Z,1.60
2018-01-22T13:28:14.333Z,1.50
2018-01-22T13:31:24.382Z,1.50
2018-01-22T13:34:35.153Z,1.50
2018-01-22T13:37:45.035Z,1.50
2018-01-22T13:41:00.956Z,1.60
2018-01-22T13:44:11.546Z,1.60
2018-01-22T13:47:21.784Z,1.60
2018-01-22T13:50:31.570Z,1.50
2018-01-22T13:53:41.882Z,1.50
2018-01-22T13:56:52.255Z,1.50
2018-01-22T14:00:03.023Z,1.50
2018-01-22T14:03:14.566Z,1.50
2018-01-22T14:06:24.995Z,1.50
2018-01-22T14:09:34.934Z,1.40
2018-01-22T14:12:44.999Z,1.40
2018-01-22T14:15:56.291Z,1.40
2018-01-22T14:19:06.554Z,1.40
2018-01-22T14:22:16.569Z,1.40
2018-01-22T14:25:27.458Z,1.30
2018-01-22T14:28:37.733Z,1.30
2018-01-22T14:31:48.594Z,1.20
2018-01-22T14:34:59.404Z,1.20
2018-01-22T14:38:10.007Z,1.20
2018-01-22T14:41:20.417Z,1.20
2018-01-22T14:44:30.752Z,1.20
2018-01-22T14:47:41.090Z,1.10
2018-01-22T14:50:51.830Z,1.10
2018-01-22T14:54:03.008Z,1.10
2018-01-22T14:57:13.244Z,1.10
2018-01-22T15:00:23.067Z,1.10
2018-01-22T15:03:32.957Z,1.10
2018-01-22T15:06:42.755Z,1.10
2018-01-22T15:09:53.552Z,1.00
2018-01-22T15:13:04.622Z,1.00
2018-01-22T15:16:15.383Z,1.00
2018-01-22T15:19:26.179Z,1.00
2018-01-22T15:22:36.583Z,1.00
2018-01-22T15:25:46.323Z,1.00
2018-01-22T15:28:56.371Z,1.00
2018-01-22T15:32:06.080Z,1.00
2018-01-22T15:35:16.214Z,1.10
2018-01-22T15:38:26.845Z,1.10
2018-01-22T15:41:37.364Z,1.10
2018-01-22T15:44:47.690Z,1.10
2018-01-22T15:47:57.753Z,1.10
2018-01-22T15:51:07.742Z,1.10
2018-01-22T15:54:17.755Z,1.10
2018-01-22T15:57:27.818Z,1.00
2018-01-22T16:00:38.294Z,1.00
2018-01-22T16:03:50.591Z,1.10
2018-01-22T16:07:00.774Z,1.10
2018-01-22T16:10:11.122Z,1.10
2018-01-22T16:13:21.786Z,1.10
2018-01-22T16:16:32.785Z,1.10
2018-01-22T16:19:43.233Z,1.10
2018-01-22T16:22:54.050Z,1.10
2018-01-22T16:26:04.085Z,1.20
2018-01-22T16:29:14.022Z,1.20
2018-01-22T16:32:24.640Z,1.20
2018-01-22T16:35:34.830Z,1.20
2018-01-22T16:38:44.867Z,1.20
2018-01-22T16:41:54.801Z,1.30
2018-01-22T16:45:05.733Z,1.30
2018-01-22T16:48:16.831Z,1.40
2018-01-22T16:51:26.983Z,1.30
2018-01-22T16:54:36.815Z,1.40
2018-01-22T16:57:46.634Z,1.40
2018-01-22T17:00:56.551Z,1.40
2018-01-22T17:04:06.253Z,1.50
2018-01-22T17:07:16.723Z,1.40
2018-01-22T17:10:26.968Z,1.50
2018-01-22T17:13:37.113Z,1.50
2018-01-22T17:16:47.419Z,1.50
2018-01-22T17:19:57.533Z,1.50
2018-01-22T17:23:08.022Z,1.50
2018-01-22T17:26:17.941Z,1.60
2018-01-22T17:29:28.684Z,1.60
2018-01-22T17:32:38.279Z,1.60
2018-01-22T17:35:48.684Z,1.60
2018-01-22T17:38:58.473Z,1.50
2018-01-22T17:42:08.639Z,1.50
2018-01-22T17:45:19.049Z,1.50
2018-01-22T17:48:28.912Z,1.50
2018-01-22T17:51:38.974Z,1.50
2018-01-22T17:54:48.741Z,1.40
2018-01-22T17:57:58.547Z,1.50
2018-01-22T18:01:09.238Z,1.40
2018-01-22T18:04:19.354Z,1.40
2018-01-22T18:07:29.408Z,1.40
2018-01-22T18:10:40.117Z,1.50
2018-01-22T18:13:50.420Z,1.50
2018-01-22T18:17:00.584Z,1.50
2018-01-22T18:20:11.611Z,1.50
2018-01-22T18:23:22.703Z,1.50
2018-01-22T18:26:33.387Z,1.50
2018-01-22T18:29:43.721Z,1.50
2018-01-22T18:32:53.517Z,1.50
2018-01-22T18:36:03.321Z,1.60
2018-01-22T18:39:13.058Z,1.50
2018-01-22T18:42:23.210Z,1.50
2018-01-22T18:45:33.897Z,1.50
2018-01-22T18:48:44.899Z,1.60
2018-01-22T18:51:55.084Z,1.60
2018-01-22T18:55:05.767Z,1.50
2018-01-22T18:58:16.076Z,1.60
2018-01-22T19:01:26.039Z,1.60
2018-01-22T19:04:36.751Z,1.60
2018-01-22T19:07:47.527Z,1.60
2018-01-22T19:10:57.681Z,1.60
2018-01-22T19:14:07.634Z,1.60
2018-01-22T19:17:17.498Z,1.60
2018-01-22T19:20:28.197Z,1.60
2018-01-22T19:23:38.622Z,1.60
2018-01-22T19:26:48.648Z,1.70
2018-01-22T19:29:59.983Z,1.70
2018-01-22T19:33:09.989Z,1.60
2018-01-22T19:36:20.170Z,1.70
2018-01-22T19:39:30.374Z,1.70
2018-01-22T19:42:40.954Z,1.70
2018-01-22T19:45:50.778Z,1.70
2018-01-22T19:49:00.706Z,1.70
2018-01-22T19:52:11.138Z,1.70
2018-01-22T19:55:21.554Z,1.70
2018-01-22T19:58:32.282Z,1.70
2018-01-22T20:01:42.517Z,1.70
2018-01-22T20:04:52.489Z,1.70
2018-01-22T20:08:02.377Z,1.70
2018-01-22T20:11:12.305Z,1.70
2018-01-22T20:14:22.170Z,1.70
2018-01-22T20:17:31.982Z,1.80
2018-01-22T20:20:41.868Z,1.70
2018-01-22T20:23:51.816Z,1.80
2018-01-22T20:27:02.389Z,1.80
2018-01-22T20:30:12.551Z,1.80
2018-01-22T20:33:23.277Z,1.80
2018-01-22T20:36:33.580Z,1.80
2018-01-22T20:39:43.787Z,1.80
2018-01-22T20:42:54.216Z,1.80
2018-01-22T20:46:04.345Z,1.80
2018-01-22T20:49:14.545Z,1.80
2018-01-22T20:52:24.900Z,1.90
2018-01-22T20:55:35.173Z,1.90
2018-01-22T20:58:46.451Z,1.80
2018-01-22T21:01:56.266Z,1.80
2018-01-22T21:05:06.037Z,1.80
2018-01-22T21:08:16.753Z,1.90
2018-01-22T21:11:26.884Z,1.90
2018-01-22T21:14:36.957Z,2.00
2018-01-22T21:17:48.020Z,2.10
2018-01-22T21:20:58.102Z,2.10
2018-01-22T21:24:08.018Z,2.20
2018-01-22T21:27:17.789Z,2.10
2018-01-22T21:30:28.610Z,2.20
2018-01-22T21:33:38.652Z,2.20
2018-01-22T21:36:48.470Z,2.20
2018-01-22T21:39:58.470Z,2.20
2018-01-22T21:43:09.614Z,2.20
2018-01-22T21:46:19.480Z,2.20
2018-01-22T21:49:29.693Z,2.20
2018-01-22T21:52:39.702Z,2.20
2018-01-22T21:55:49.824Z,2.30
2018-01-22T21:59:01.105Z,2.20
2018-01-22T22:05:22.773Z,2.30
2018-01-22T22:08:32.727Z,2.30
2018-01-22T22:11:43.162Z,2.30
2018-01-22T22:14:53.381Z,2.30
2018-01-22T22:18:03.421Z,2.30
2018-01-22T22:21:14.030Z,2.30
2018-01-22T22:24:24.001Z,2.40
2018-01-22T22:27:34.792Z,2.40
2018-01-22T22:30:44.590Z,2.40
2018-01-22T22:33:54.587Z,2.40
2018-01-22T22:37:04.527Z,2.40
2018-01-22T22:40:15.093Z,2.40
2018-01-22T22:43:25.279Z,2.40
2018-01-22T22:46:35.139Z,2.40
2018-01-22T22:49:45.025Z,2.40
2018-01-22T22:52:54.911Z,2.40
2018-01-22T22:56:04.913Z,2.40
2018-01-22T22:59:15.806Z,2.40
2018-01-22T23:02:26.235Z,2.40
2018-01-22T23:05:36.326Z,2.40
2018-01-22T23:08:47.111Z,2.40
2018-01-22T23:11:57.497Z,2.40
2018-01-22T23:15:08.054Z,2.40
2018-01-22T23:18:18.018Z,2.40
2018-01-22T23:21:28.198Z,2.40
2018-01-22T23:24:38.251Z,2.40
2018-01-22T23:27:48.319Z,2.40
2018-01-22T23:30:59.284Z,2.40
2018-01-22T23:34:09.406Z,2.40
2018-01-22T23:37:19.354Z,2.40
2018-01-22T23:40:29.079Z,2.40
2018-01-22T23:43:39.090Z,2.40
2018-01-22T23:46:48.986Z,2.40
2018-01-22T23:49:58.994Z,2.50
2018-01-22T23:53:09.725Z,2.50
2018-01-22T23:56:20.609Z,2.50
2018-01-22T23:59:30.363Z,2.50
